createdAt,value
2023-05-11T00:01:39.061Z,1
2023-05-11T00:03:22.758Z,1
2023-05-11T00:05:06.468Z,1
2023-05-11T00:06:50.159Z,2
2023-05-11T00:08:33.865Z,1
2023-05-11T00:10:17.564Z,1
2023-05-11T00:12:01.256Z,1
2023-05-11T00:13:44.965Z,0
2023-05-11T00:15:28.681Z,1
2023-05-11T00:17:12.368Z,1
2023-05-11T00:18:56.079Z,1
2023-05-11T00:20:39.777Z,1
2023-05-11T00:22:23.473Z,1
2023-05-11T00:24:07.177Z,1
2023-05-11T00:25:50.870Z,1
2023-05-11T00:27:34.573Z,1
2023-05-11T00:29:18.273Z,1
2023-05-11T00:31:01.982Z,0
2023-05-11T00:32:45.681Z,1
2023-05-11T00:34:29.381Z,1
2023-05-11T00:36:13.085Z,1
2023-05-11T00:37:56.782Z,1
2023-05-11T00:39:40.483Z,1
2023-05-11T00:41:24.183Z,2
2023-05-11T00:43:07.877Z,1
2023-05-11T00:44:51.591Z,1
2023-05-11T00:46:35.296Z,1
2023-05-11T00:48:18.981Z,1
2023-05-11T00:50:02.694Z,1
2023-05-11T00:53:30.095Z,1
2023-05-11T00:55:13.790Z,1
2023-05-11T00:56:57.487Z,2
2023-05-11T00:58:41.207Z,1
2023-05-11T01:00:24.889Z,1
2023-05-11T01:02:08.605Z,1
2023-05-11T01:03:52.302Z,1
2023-05-11T01:05:36.002Z,1
2023-05-11T01:07:19.711Z,1
2023-05-11T01:09:03.416Z,1
2023-05-11T01:10:47.189Z,0
2023-05-11T01:12:30.810Z,1
2023-05-11T01:14:14.520Z,1
2023-05-11T01:15:58.211Z,1
2023-05-11T01:19:25.619Z,1
2023-05-11T01:21:09.326Z,1
2023-05-11T01:22:53.024Z,1
2023-05-11T01:24:36.726Z,1
2023-05-11T01:26:20.421Z,2
2023-05-11T01:28:04.123Z,1
2023-05-11T01:29:47.831Z,1
2023-05-11T01:31:31.534Z,0
2023-05-11T01:33:15.226Z,1
2023-05-11T01:34:58.932Z,1
2023-05-11T01:36:42.644Z,1
2023-05-11T01:38:26.332Z,2
2023-05-11T01:40:10.037Z,1
2023-05-11T01:41:53.737Z,1
2023-05-11T01:43:37.464Z,1
2023-05-11T01:45:21.139Z,2
2023-05-11T01:47:04.825Z,1
2023-05-11T01:48:48.565Z,1
2023-05-11T01:50:32.245Z,1
2023-05-11T01:52:15.940Z,1
2023-05-11T01:53:59.644Z,1
2023-05-11T01:55:43.345Z,1
2023-05-11T01:57:27.048Z,1
2023-05-11T01:59:10.763Z,2
2023-05-11T02:00:54.441Z,1
2023-05-11T02:02:38.147Z,1
2023-05-11T02:04:21.851Z,1
2023-05-11T02:06:05.552Z,2
2023-05-11T02:07:49.259Z,1
2023-05-11T02:09:32.948Z,2
2023-05-11T02:11:16.654Z,1
2023-05-11T02:13:00.355Z,1
2023-05-11T02:14:44.055Z,1
2023-05-11T02:16:27.756Z,1
2023-05-11T02:18:11.460Z,1
2023-05-11T02:19:55.169Z,1
2023-05-11T02:21:38.896Z,1
2023-05-11T02:23:22.570Z,2
2023-05-11T02:25:06.266Z,1
2023-05-11T02:28:33.664Z,1
2023-05-11T02:30:17.371Z,1
2023-05-11T02:32:01.068Z,0
2023-05-11T02:33:44.769Z,1
2023-05-11T02:35:28.472Z,2
2023-05-11T02:37:12.180Z,2
2023-05-11T02:38:55.872Z,2
2023-05-11T02:40:39.583Z,1
2023-05-11T02:42:23.288Z,1
2023-05-11T02:44:06.988Z,1
2023-05-11T02:45:50.700Z,1
2023-05-11T02:47:34.393Z,1
2023-05-11T02:49:18.091Z,1
2023-05-11T02:51:01.778Z,2
2023-05-11T02:52:45.494Z,1
2023-05-11T02:54:29.187Z,1
2023-05-11T02:56:12.890Z,1
2023-05-11T02:57:56.602Z,1
2023-05-11T02:59:40.300Z,1
2023-05-11T03:01:24.006Z,1
2023-05-11T03:03:07.745Z,1
2023-05-11T03:04:51.433Z,1
2023-05-11T03:06:35.113Z,1
2023-05-11T03:08:18.802Z,0
2023-05-11T03:10:02.508Z,1
2023-05-11T03:11:46.233Z,1
2023-05-11T03:13:29.907Z,1
2023-05-11T03:15:13.628Z,1
2023-05-11T03:16:57.308Z,1
2023-05-11T03:18:41.029Z,2
2023-05-11T03:20:24.739Z,1
2023-05-11T03:22:08.441Z,1
2023-05-11T03:23:52.147Z,1
2023-05-11T03:25:35.820Z,1
2023-05-11T03:27:19.534Z,1
2023-05-11T03:29:03.230Z,2
2023-05-11T03:30:46.926Z,1
2023-05-11T03:32:30.637Z,2
2023-05-11T03:34:14.336Z,2
2023-05-11T03:35:58.035Z,2
2023-05-11T03:37:41.740Z,2
2023-05-11T03:39:25.440Z,3
2023-05-11T03:41:09.136Z,2
2023-05-11T03:42:52.851Z,3
2023-05-11T03:44:36.685Z,3
2023-05-11T03:46:20.261Z,4
2023-05-11T03:48:03.962Z,4
2023-05-11T03:49:47.668Z,3
2023-05-11T03:51:31.395Z,4
2023-05-11T03:53:15.106Z,5
2023-05-11T03:54:58.773Z,5
2023-05-11T03:56:42.465Z,6
2023-05-11T03:58:26.167Z,8
2023-05-11T04:01:53.592Z,10
2023-05-11T04:03:37.267Z,11
2023-05-11T04:05:20.985Z,12
2023-05-11T04:07:04.666Z,14
2023-05-11T04:08:48.378Z,16
2023-05-11T04:10:32.090Z,17
2023-05-11T04:12:15.771Z,20
2023-05-11T04:13:59.480Z,22
2023-05-11T04:15:43.183Z,24
2023-05-11T04:17:26.886Z,26
2023-05-11T04:19:10.618Z,28
2023-05-11T04:20:54.287Z,29
2023-05-11T04:22:38.033Z,31
2023-05-11T04:24:21.716Z,32
2023-05-11T04:26:05.389Z,34
2023-05-11T04:27:49.094Z,37
2023-05-11T04:29:32.787Z,38
2023-05-11T04:31:16.502Z,40
2023-05-11T04:33:00.258Z,42
2023-05-11T04:34:43.889Z,43
2023-05-11T04:36:27.597Z,46
2023-05-11T04:38:11.302Z,47
2023-05-11T04:39:55.018Z,49
2023-05-11T04:41:38.745Z,52
2023-05-11T04:43:22.415Z,55
2023-05-11T04:45:06.120Z,57
2023-05-11T04:46:49.807Z,60
2023-05-11T04:48:33.514Z,63
2023-05-11T04:50:17.217Z,66
2023-05-11T04:53:44.620Z,75
2023-05-11T04:55:28.361Z,78
2023-05-11T04:57:12.017Z,81
2023-05-11T04:58:55.753Z,84
2023-05-11T05:00:39.426Z,88
2023-05-11T05:02:23.126Z,92
2023-05-11T05:04:06.825Z,96
2023-05-11T05:05:50.523Z,101
2023-05-11T05:07:34.236Z,105
2023-05-11T05:09:17.945Z,110
2023-05-11T05:11:01.633Z,115
2023-05-11T05:14:29.047Z,124
2023-05-11T05:16:12.737Z,130
2023-05-11T05:17:56.442Z,136
2023-05-11T05:19:40.139Z,141
2023-05-11T05:21:23.849Z,145
2023-05-11T05:23:07.560Z,151
2023-05-11T05:24:51.245Z,158
2023-05-11T05:26:34.955Z,164
2023-05-11T05:28:18.655Z,171
2023-05-11T05:30:02.359Z,179
2023-05-11T05:31:46.061Z,189
2023-05-11T05:33:29.768Z,200
2023-05-11T05:35:13.473Z,211
2023-05-11T05:36:57.165Z,220
2023-05-11T05:38:40.859Z,228
2023-05-11T05:40:24.574Z,237
2023-05-11T05:42:08.262Z,244
2023-05-11T05:43:51.978Z,245
2023-05-11T05:45:35.696Z,251
2023-05-11T05:47:19.395Z,256
2023-05-11T05:49:03.078Z,257
2023-05-11T05:50:46.779Z,260
2023-05-11T05:52:30.481Z,269
2023-05-11T05:54:14.186Z,276
2023-05-11T05:55:57.895Z,283
2023-05-11T05:57:41.586Z,291
2023-05-11T06:01:09.035Z,305
2023-05-11T06:02:52.681Z,308
2023-05-11T06:04:36.397Z,311
2023-05-11T06:06:20.090Z,314
2023-05-11T06:08:03.807Z,317
2023-05-11T06:09:47.506Z,320
2023-05-11T06:11:31.195Z,322
2023-05-11T06:13:14.897Z,324
2023-05-11T06:14:58.587Z,327
2023-05-11T06:16:42.347Z,333
2023-05-11T06:18:26.014Z,338
2023-05-11T06:20:09.741Z,341
2023-05-11T06:21:53.404Z,347
2023-05-11T06:25:20.815Z,356
2023-05-11T06:27:04.517Z,358
2023-05-11T06:28:48.212Z,355
2023-05-11T06:30:31.909Z,345
2023-05-11T06:33:59.316Z,328
2023-05-11T06:35:43.028Z,322
2023-05-11T06:37:26.717Z,325
2023-05-11T06:39:10.634Z,329
2023-05-11T06:41:01.114Z,333
2023-05-11T06:42:37.960Z,334
2023-05-11T06:44:21.684Z,332
2023-05-11T06:46:05.233Z,319
2023-05-11T06:47:48.936Z,321
2023-05-11T06:49:32.632Z,331
2023-05-11T06:51:16.338Z,341
2023-05-11T06:53:00.041Z,347
2023-05-11T06:56:27.434Z,356
2023-05-11T06:58:11.144Z,365
2023-05-11T06:59:54.836Z,380
2023-05-11T07:01:38.545Z,395
2023-05-11T07:05:06.076Z,413
2023-05-11T07:06:49.679Z,414
2023-05-11T07:08:33.350Z,419
2023-05-11T07:10:24.120Z,434
2023-05-11T07:12:00.748Z,452
2023-05-11T07:13:44.446Z,468
2023-05-11T07:15:28.147Z,479
2023-05-11T07:17:11.890Z,488
2023-05-11T07:18:55.551Z,494
2023-05-11T07:20:39.268Z,500
2023-05-11T07:22:22.952Z,502
2023-05-11T07:24:06.658Z,509
2023-05-11T07:25:50.361Z,512
2023-05-11T07:29:17.766Z,520
2023-05-11T07:31:01.459Z,514
2023-05-11T07:32:45.171Z,512
2023-05-11T07:34:28.869Z,507
2023-05-11T07:37:56.466Z,500
2023-05-11T07:39:40.057Z,499
2023-05-11T07:41:23.673Z,498
2023-05-11T07:43:07.379Z,501
2023-05-11T07:44:51.068Z,509
2023-05-11T07:46:34.777Z,522
2023-05-11T07:48:18.485Z,531
2023-05-11T07:50:02.172Z,538
2023-05-11T07:51:45.909Z,544
2023-05-11T07:53:29.580Z,544
2023-05-11T07:55:13.403Z,544
2023-05-11T07:56:57.049Z,547
2023-05-11T07:58:40.683Z,555
2023-05-11T08:00:24.456Z,571
2023-05-11T08:02:08.158Z,598
2023-05-11T08:03:51.842Z,630
2023-05-11T08:05:35.604Z,660
2023-05-11T08:07:19.201Z,687
2023-05-11T08:09:02.933Z,709
2023-05-11T08:14:14.019Z,740
2023-05-11T08:15:57.797Z,740
2023-05-11T08:17:41.443Z,738
2023-05-11T08:19:25.140Z,736
2023-05-11T08:21:15.809Z,738
2023-05-11T08:22:52.515Z,740
2023-05-11T08:24:36.216Z,741
2023-05-11T08:26:19.924Z,740
2023-05-11T08:28:03.620Z,736
2023-05-11T08:29:47.339Z,717
2023-05-11T08:31:31.012Z,692
2023-05-11T08:33:14.724Z,679
2023-05-11T08:34:58.476Z,666
2023-05-11T08:36:42.157Z,656
2023-05-11T08:38:25.839Z,655
2023-05-11T08:40:09.514Z,661
2023-05-11T08:41:53.224Z,659
2023-05-11T08:43:36.959Z,647
2023-05-11T08:45:20.637Z,627
2023-05-11T08:47:04.347Z,626
2023-05-11T08:48:48.026Z,637
2023-05-11T08:50:31.748Z,650
2023-05-11T08:53:59.129Z,651
2023-05-11T08:55:42.833Z,634
2023-05-11T08:57:26.537Z,632
2023-05-11T08:59:10.242Z,627
2023-05-11T09:00:53.940Z,595
2023-05-11T09:02:37.645Z,568
2023-05-11T09:04:21.362Z,568
2023-05-11T09:06:05.053Z,580
2023-05-11T09:07:48.745Z,589
2023-05-11T09:09:32.490Z,588
2023-05-11T09:11:16.145Z,606
2023-05-11T09:12:59.852Z,648
2023-05-11T09:14:43.569Z,670
2023-05-11T09:16:27.256Z,676
2023-05-11T09:18:10.967Z,678
2023-05-11T09:21:38.360Z,704
2023-05-11T09:23:22.063Z,710
2023-05-11T09:26:49.472Z,717
2023-05-11T09:28:33.189Z,715
2023-05-11T09:30:16.880Z,707
2023-05-11T09:32:00.580Z,702
2023-05-11T09:33:44.269Z,685
2023-05-11T09:35:28.066Z,665
2023-05-11T09:37:11.807Z,639
2023-05-11T09:38:55.389Z,603
2023-05-11T09:40:39.084Z,581
2023-05-11T09:44:06.492Z,622
2023-05-11T09:47:33.942Z,693
2023-05-11T09:49:17.593Z,725
2023-05-11T09:52:44.989Z,740
2023-05-11T09:54:28.696Z,740
2023-05-11T09:56:12.394Z,740
2023-05-11T09:57:56.105Z,740
2023-05-11T09:59:39.816Z,740
2023-05-11T10:01:23.499Z,740
2023-05-11T10:03:07.218Z,739
2023-05-11T10:04:50.915Z,731
2023-05-11T10:06:34.614Z,741
2023-05-11T10:08:18.334Z,741
2023-05-11T10:10:02.024Z,740
2023-05-11T10:11:45.725Z,740
2023-05-11T10:13:29.598Z,740
2023-05-11T10:15:13.117Z,740
2023-05-11T10:16:56.830Z,739
2023-05-11T10:18:40.532Z,739
2023-05-11T10:20:24.228Z,741
2023-05-11T10:22:07.932Z,741
2023-05-11T10:25:35.346Z,739
2023-05-11T10:27:19.039Z,731
2023-05-11T10:29:02.749Z,741
2023-05-11T10:30:46.453Z,740
2023-05-11T10:32:30.145Z,739
2023-05-11T10:34:13.847Z,741
2023-05-11T10:35:57.552Z,740
2023-05-11T10:37:41.244Z,739
2023-05-11T10:39:24.951Z,741
2023-05-11T10:41:08.648Z,741
2023-05-11T10:42:52.356Z,740
2023-05-11T10:44:36.071Z,740
2023-05-11T10:46:19.746Z,740
2023-05-11T10:48:03.448Z,740
2023-05-11T10:49:47.153Z,740
2023-05-11T10:51:30.866Z,741
2023-05-11T10:53:14.565Z,741
2023-05-11T10:54:58.265Z,739
2023-05-11T10:56:41.975Z,739
2023-05-11T10:58:25.674Z,740
2023-05-11T11:00:09.375Z,740
2023-05-11T11:01:53.084Z,740
2023-05-11T11:03:36.786Z,740
2023-05-11T11:05:20.479Z,741
2023-05-11T11:07:04.175Z,741
2023-05-11T11:08:47.879Z,740
2023-05-11T11:10:31.590Z,740
2023-05-11T11:12:15.360Z,730
2023-05-11T11:13:59.017Z,740
2023-05-11T11:15:42.720Z,740
2023-05-11T11:17:26.434Z,740
2023-05-11T11:19:10.103Z,740
2023-05-11T11:20:53.800Z,741
2023-05-11T11:22:37.496Z,740
2023-05-11T11:24:21.200Z,740
2023-05-11T11:26:04.905Z,740
2023-05-11T11:27:48.621Z,741
2023-05-11T11:31:16.004Z,740
2023-05-11T11:32:59.707Z,740
2023-05-11T11:34:43.415Z,740
2023-05-11T11:36:27.108Z,740
2023-05-11T11:38:10.830Z,740
2023-05-11T11:39:54.508Z,739
2023-05-11T11:41:38.211Z,741
2023-05-11T11:43:21.921Z,741
2023-05-11T11:45:05.616Z,740
2023-05-11T11:48:33.028Z,741
2023-05-11T11:50:16.727Z,740
2023-05-11T11:52:00.437Z,740
2023-05-11T11:53:44.130Z,739
2023-05-11T11:57:11.536Z,740
2023-05-11T12:00:38.938Z,736
2023-05-11T12:02:22.655Z,740
2023-05-11T12:04:06.338Z,741
2023-05-11T12:05:57.038Z,740
2023-05-11T12:07:33.751Z,740
2023-05-11T12:11:08.285Z,741
2023-05-11T12:12:44.966Z,741
2023-05-11T12:14:28.747Z,740
2023-05-11T12:16:12.268Z,737
2023-05-11T12:17:55.964Z,740
2023-05-11T12:19:39.675Z,740
2023-05-11T12:21:23.360Z,740
2023-05-11T12:23:07.071Z,740
2023-05-11T12:24:50.767Z,740
2023-05-11T12:26:34.633Z,742
2023-05-11T12:28:18.252Z,741
2023-05-11T12:30:01.876Z,731
2023-05-11T12:31:45.579Z,739
2023-05-11T12:33:29.295Z,740
2023-05-11T12:35:12.986Z,741
2023-05-11T12:38:40.400Z,740
2023-05-11T12:40:24.094Z,741
2023-05-11T12:42:07.802Z,741
2023-05-11T12:43:51.510Z,739
2023-05-11T12:45:35.202Z,740
2023-05-11T12:47:18.909Z,741
2023-05-11T12:49:02.601Z,741
2023-05-11T12:50:46.310Z,741
2023-05-11T12:52:30.012Z,739
2023-05-11T12:54:13.704Z,740
2023-05-11T12:55:57.413Z,740
2023-05-11T12:57:41.128Z,741
2023-05-11T12:59:24.824Z,740
2023-05-11T13:01:08.565Z,740
2023-05-11T13:02:52.227Z,741
2023-05-11T13:04:35.932Z,741
2023-05-11T13:06:19.633Z,734
2023-05-11T13:08:03.337Z,741
2023-05-11T13:09:47.051Z,740
2023-05-11T13:11:30.746Z,741
2023-05-11T13:13:14.445Z,741
2023-05-11T13:14:58.159Z,740
2023-05-11T13:16:41.840Z,740
2023-05-11T13:18:25.548Z,741
2023-05-11T13:20:09.247Z,741
2023-05-11T13:21:52.971Z,740
2023-05-11T13:23:36.659Z,739
2023-05-11T13:25:20.350Z,740
2023-05-11T13:27:04.058Z,741
2023-05-11T13:28:47.759Z,732
2023-05-11T13:30:31.460Z,740
2023-05-11T13:32:15.163Z,740
2023-05-11T13:33:58.856Z,740
2023-05-11T13:37:26.276Z,740
2023-05-11T13:39:09.964Z,740
2023-05-11T13:40:53.673Z,741
2023-05-11T13:42:37.374Z,741
2023-05-11T13:44:21.077Z,740
2023-05-11T13:46:04.779Z,741
2023-05-11T13:47:48.484Z,741
2023-05-11T13:49:32.233Z,741
2023-05-11T13:51:15.954Z,741
2023-05-11T13:52:59.608Z,740
2023-05-11T13:54:43.348Z,740
2023-05-11T13:56:27.029Z,741
2023-05-11T13:58:10.700Z,741
2023-05-11T13:59:54.434Z,740
2023-05-11T14:03:21.817Z,741
2023-05-11T14:05:05.507Z,741
2023-05-11T14:06:49.199Z,740
2023-05-11T14:08:32.904Z,740
2023-05-11T14:12:00.317Z,741
2023-05-11T14:13:44.057Z,740
2023-05-11T14:15:27.724Z,740
2023-05-11T14:17:11.423Z,740
2023-05-11T14:19:02.125Z,741
2023-05-11T14:20:38.838Z,741
2023-05-11T14:22:22.531Z,740
2023-05-11T14:24:06.227Z,738
2023-05-11T14:27:33.668Z,742
2023-05-11T14:29:17.345Z,741
2023-05-11T14:31:01.042Z,740
2023-05-11T14:32:44.741Z,741
2023-05-11T14:34:28.440Z,741
2023-05-11T14:36:12.156Z,740
2023-05-11T14:37:55.920Z,738
2023-05-11T14:39:39.566Z,740
2023-05-11T14:41:30.267Z,741
2023-05-11T14:43:06.967Z,740
2023-05-11T14:44:50.662Z,740
2023-05-11T14:46:34.362Z,741
2023-05-11T14:48:18.068Z,742
2023-05-11T14:50:01.764Z,741
2023-05-11T14:51:45.472Z,731
2023-05-11T14:53:29.191Z,740
2023-05-11T14:55:12.888Z,741
2023-05-11T14:56:56.574Z,740
2023-05-11T14:58:40.272Z,740
2023-05-11T15:00:23.984Z,741
2023-05-11T15:02:07.819Z,741
2023-05-11T15:07:18.796Z,740
2023-05-11T15:09:02.630Z,741
2023-05-11T15:10:53.185Z,741
2023-05-11T15:12:29.953Z,741
2023-05-11T15:14:13.609Z,741
2023-05-11T15:15:57.384Z,740
2023-05-11T15:17:48.032Z,740
2023-05-11T15:19:31.705Z,732
2023-05-11T15:21:08.416Z,740
2023-05-11T15:24:35.867Z,741
2023-05-11T15:26:26.557Z,741
2023-05-11T15:28:03.248Z,741
2023-05-11T15:29:47.111Z,740
2023-05-11T15:31:30.692Z,741
2023-05-11T15:33:14.497Z,740
2023-05-11T15:34:58.179Z,740
2023-05-11T15:36:41.770Z,740
2023-05-11T15:38:25.437Z,741
2023-05-11T15:40:16.128Z,741
2023-05-11T15:41:52.830Z,740
2023-05-11T15:43:36.541Z,740
2023-05-11T15:45:20.336Z,741
2023-05-11T15:48:47.644Z,742
2023-05-11T15:50:45.372Z,736
2023-05-11T15:52:15.071Z,731
2023-05-11T15:53:58.758Z,733
2023-05-11T15:55:42.455Z,741
2023-05-11T15:57:26.151Z,740
2023-05-11T15:59:09.875Z,737
2023-05-11T16:00:53.558Z,741
2023-05-11T16:02:37.258Z,740
2023-05-11T16:04:20.959Z,740
2023-05-11T16:06:04.712Z,739
2023-05-11T16:07:48.369Z,740
2023-05-11T16:09:32.067Z,741
2023-05-11T16:11:15.858Z,740
2023-05-11T16:12:59.519Z,741
2023-05-11T16:14:43.173Z,740
2023-05-11T16:16:26.863Z,740
2023-05-11T16:18:10.569Z,741
2023-05-11T16:19:54.333Z,739
2023-05-11T16:21:37.967Z,739
2023-05-11T16:23:21.672Z,739
2023-05-11T16:25:05.375Z,734
2023-05-11T16:26:49.076Z,740
2023-05-11T16:28:32.797Z,739
2023-05-11T16:30:16.475Z,739
2023-05-11T16:32:00.216Z,740
2023-05-11T16:33:43.927Z,740
2023-05-11T16:35:27.601Z,740
2023-05-11T16:37:11.313Z,740
2023-05-11T16:38:54.998Z,739
2023-05-11T16:40:38.699Z,677
2023-05-11T16:42:22.400Z,624
2023-05-11T16:44:06.096Z,593
2023-05-11T16:45:49.814Z,572
2023-05-11T16:47:33.501Z,564
2023-05-11T16:49:17.231Z,558
2023-05-11T16:51:00.903Z,553
2023-05-11T16:52:44.595Z,537
2023-05-11T16:54:28.300Z,514
2023-05-11T16:56:12.037Z,476
2023-05-11T16:57:55.710Z,437
2023-05-11T16:59:39.419Z,415
2023-05-11T17:01:23.112Z,394
2023-05-11T17:03:06.883Z,376
2023-05-11T17:04:50.518Z,365
2023-05-11T17:06:34.216Z,360
2023-05-11T17:08:17.913Z,344
2023-05-11T17:10:01.620Z,336
2023-05-11T17:16:56.428Z,309
2023-05-11T17:18:40.137Z,300
2023-05-11T17:20:23.843Z,284
2023-05-11T17:22:14.550Z,281
2023-05-11T17:23:51.254Z,274
2023-05-11T17:25:34.937Z,268
2023-05-11T17:27:18.638Z,260
2023-05-11T17:29:02.342Z,251
2023-05-11T17:30:46.057Z,243
2023-05-11T17:34:13.470Z,231
2023-05-11T17:35:57.140Z,229
2023-05-11T17:39:24.569Z,225
2023-05-11T17:41:08.250Z,221
2023-05-11T17:42:51.960Z,213
2023-05-11T17:44:35.659Z,207
2023-05-11T17:49:46.761Z,198
2023-05-11T17:51:30.463Z,197
2023-05-11T17:53:14.212Z,195
2023-05-11T17:55:04.871Z,193
2023-05-11T17:56:41.570Z,190
2023-05-11T17:58:25.275Z,187
2023-05-11T18:00:08.961Z,179
2023-05-11T18:01:59.674Z,173
2023-05-11T18:03:36.379Z,167
2023-05-11T18:05:20.082Z,160
2023-05-11T18:07:03.793Z,152
2023-05-11T18:08:47.481Z,143
2023-05-11T18:13:58.588Z,118
2023-05-11T18:15:42.291Z,109
2023-05-11T18:17:26.021Z,102
2023-05-11T18:19:09.700Z,96
2023-05-11T18:20:53.418Z,90
2023-05-11T18:22:37.097Z,83
2023-05-11T18:24:20.800Z,77
2023-05-11T18:26:04.504Z,71
2023-05-11T18:27:48.203Z,65
2023-05-11T18:29:31.942Z,59
2023-05-11T18:31:15.613Z,53
2023-05-11T18:33:06.304Z,47
2023-05-11T18:34:43.024Z,42
2023-05-11T18:36:26.736Z,38
2023-05-11T18:38:10.418Z,33
2023-05-11T18:39:54.123Z,28
2023-05-11T18:41:37.824Z,23
2023-05-11T18:43:21.515Z,20
2023-05-11T18:50:16.329Z,10
2023-05-11T18:53:43.745Z,7
2023-05-11T18:55:27.438Z,6
2023-05-11T18:58:54.856Z,5
2023-05-11T19:04:05.964Z,2
2023-05-11T19:12:44.605Z,1
2023-05-11T19:14:28.216Z,1
2023-05-11T19:16:11.871Z,2
2023-05-11T19:18:02.596Z,1
2023-05-11T19:19:53.334Z,1
2023-05-11T19:21:23.136Z,1
2023-05-11T19:23:06.667Z,1
2023-05-11T19:24:57.389Z,1
2023-05-11T19:26:41.153Z,1
2023-05-11T19:28:17.767Z,8
2023-05-11T19:30:01.542Z,8
2023-05-11T19:31:45.352Z,1
2023-05-11T19:33:28.938Z,1
2023-05-11T19:35:12.583Z,0
2023-05-11T19:36:56.321Z,1
2023-05-11T19:38:39.988Z,1
2023-05-11T19:42:07.466Z,0
2023-05-11T19:43:51.090Z,0
2023-05-11T19:45:34.827Z,0
2023-05-11T19:47:18.583Z,1
2023-05-11T19:50:45.910Z,1
2023-05-11T19:55:56.991Z,1
2023-05-11T19:57:40.690Z,1
2023-05-11T19:59:24.484Z,1
2023-05-11T20:04:35.571Z,1
2023-05-11T20:06:19.297Z,1
2023-05-11T20:08:02.905Z,1
2023-05-11T20:09:46.772Z,1
2023-05-11T20:11:30.425Z,1
2023-05-11T20:13:14.077Z,2
2023-05-11T20:14:57.753Z,1
2023-05-11T20:16:41.547Z,1
2023-05-11T20:18:25.133Z,0
2023-05-11T20:20:08.805Z,1
2023-05-11T20:21:52.551Z,1
2023-05-11T20:23:36.222Z,1
2023-05-11T20:25:19.983Z,0
2023-05-11T20:28:47.350Z,1
2023-05-11T20:30:31.030Z,1
2023-05-11T20:39:09.529Z,0
2023-05-11T20:42:36.944Z,10
2023-05-11T20:46:04.356Z,9
2023-05-11T20:49:31.740Z,10
2023-05-11T20:52:59.148Z,1
2023-05-11T20:56:26.596Z,0
2023-05-11T20:58:10.273Z,0
2023-05-11T21:01:37.722Z,1
2023-05-11T21:03:21.359Z,1
2023-05-11T21:05:05.095Z,10
2023-05-11T21:06:48.761Z,9
2023-05-11T21:08:32.564Z,10
2023-05-11T21:10:16.233Z,10
2023-05-11T21:11:59.861Z,10
2023-05-11T21:13:43.571Z,1
2023-05-11T21:15:27.274Z,0
2023-05-11T21:17:10.969Z,2
2023-05-11T21:19:01.683Z,2
2023-05-11T21:20:38.379Z,0
2023-05-11T21:22:22.066Z,1
2023-05-11T21:24:05.784Z,1
2023-05-11T21:25:49.477Z,1
2023-05-11T21:27:33.182Z,1
2023-05-11T21:29:16.882Z,1
2023-05-11T21:31:00.577Z,1
2023-05-11T21:32:44.282Z,0
2023-05-11T21:34:27.985Z,1
2023-05-11T21:36:11.677Z,1
2023-05-11T21:37:55.383Z,1
2023-05-11T21:39:39.081Z,1
2023-05-11T21:41:22.802Z,1
2023-05-11T21:43:06.484Z,1
2023-05-11T21:44:50.191Z,1
2023-05-11T21:46:33.884Z,2
2023-05-11T21:48:17.598Z,1
2023-05-11T21:50:01.284Z,1
2023-05-11T21:51:44.991Z,2
2023-05-11T21:53:28.715Z,1
2023-05-11T21:55:12.401Z,1
2023-05-11T21:56:56.108Z,10
2023-05-11T21:58:39.802Z,10
2023-05-11T22:00:23.525Z,10
2023-05-11T22:02:07.210Z,1
2023-05-11T22:03:50.918Z,1
2023-05-11T22:05:34.612Z,0
2023-05-11T22:07:18.316Z,1
2023-05-11T22:09:02.022Z,1
2023-05-11T22:10:45.754Z,0
2023-05-11T22:12:29.430Z,1
2023-05-11T22:14:13.126Z,1
2023-05-11T22:15:56.822Z,1
2023-05-11T22:17:40.528Z,1
2023-05-11T22:21:07.933Z,1
2023-05-11T22:22:51.617Z,2
2023-05-11T22:24:35.364Z,1
2023-05-11T22:26:19.034Z,1
2023-05-11T22:28:02.735Z,1
2023-05-11T22:29:46.534Z,10
2023-05-11T22:31:30.198Z,10
2023-05-11T22:33:13.937Z,0
2023-05-11T22:34:57.540Z,1
2023-05-11T22:36:41.229Z,2
2023-05-11T22:38:24.940Z,1
2023-05-11T22:40:08.629Z,1
2023-05-11T22:41:52.336Z,1
2023-05-11T22:43:36.038Z,1
2023-05-11T22:45:19.737Z,1
2023-05-11T22:47:03.450Z,1
2023-05-11T22:48:47.143Z,1
2023-05-11T22:50:30.831Z,1
2023-05-11T22:52:14.546Z,1
2023-05-11T22:53:58.248Z,2
2023-05-11T22:55:41.946Z,1
2023-05-11T22:57:25.648Z,1
2023-05-11T22:59:09.362Z,1
2023-05-11T23:00:53.054Z,1
2023-05-11T23:02:36.762Z,1
2023-05-11T23:04:20.459Z,2
2023-05-11T23:06:04.157Z,1
2023-05-11T23:07:47.864Z,10
2023-05-11T23:09:31.583Z,9
2023-05-11T23:11:15.269Z,10
2023-05-11T23:12:58.977Z,1
2023-05-11T23:14:42.672Z,1
2023-05-11T23:16:26.385Z,1
2023-05-11T23:18:10.072Z,1
2023-05-11T23:19:53.784Z,1
2023-05-11T23:21:37.502Z,1
2023-05-11T23:23:21.243Z,1
2023-05-11T23:25:04.878Z,1
2023-05-11T23:28:32.284Z,1
2023-05-11T23:30:16.027Z,1
2023-05-11T23:31:59.690Z,1
2023-05-11T23:33:43.399Z,1
2023-05-11T23:37:10.786Z,0
2023-05-11T23:38:54.491Z,0
2023-05-11T23:40:38.213Z,1
2023-05-11T23:42:21.889Z,2
2023-05-11T23:44:05.602Z,1
2023-05-11T23:45:49.317Z,1
2023-05-11T23:47:33.005Z,1
2023-05-11T23:49:16.723Z,1
2023-05-11T23:51:00.399Z,0
2023-05-11T23:52:44.102Z,1
2023-05-11T23:54:27.843Z,1
2023-05-11T23:56:11.499Z,1
2023-05-11T23:57:55.212Z,1
2023-05-11T23:59:38.908Z,1
